Domov               UVHVVR             MKGP            O straneh              
ZDRAVSTVENO VARSTVO RASTLIN
  MREŽA AGROMET. POSTAJ
 ► PROGNOSTIČNA OBVESTILA
AGROMETEOROLOŠKI PODATKI -
ARSO
OBVLADOVANJE TVEGANJ ZARADI
NEUGODNIH VREMENSKIH RAZMER
  ► NARAVNE NESREČE
  ► SUŠA/MOČA
  ► NAMAKANJE
  ► ŽLED (gozdarstvo)
KARTOGRAFSKI PRIKAZI
SPLETNE POVEZAVE
PROJEKTI IN PUBLIKACIJE

AGROMETEOROLOŠKA MREŽA: VREMENSKE POSTAJE IN FENOLOŠKA OPAZOVANJA

Pregled podatkov za lokacijo Branik, meteorološka postaja 42394

Pregled senzorjev na lokaciji

ID Ime Zadnja
vrednost
Datum
zadnje
spremembe
Tip
senzorja
2192 Padavine (mm) 0 mm 23.7.2018 05:30 Rain-O-Matic
2189 Relativna vlaga 2 m (% RH) 100 % RH 23.7.2018 05:30 50YA
2188 Temperatura 2 m (°C) 16,38 °C 23.7.2018 05:30 50YA
2193 Smer vetra (°) 120,59 ° 23.7.2018 05:30 566.2S-130
2191 Hitrost vetra (km/h) 0,12 km/h 23.7.2018 05:30 566.2S-176 (200km/h)

Pregled podatkov zadnjih 24 ur

Zap.
št.
Datum in čas Branik
Padavine Relativna
vlaga
2
m
Temperatura
2
m
Smer
vetra
Hitrost
vetra
1 23.7.2018 06:00
2 23.7.2018 05:30
3 23.7.2018 05:00
4 23.7.2018 04:30 0 100 16,4 120,6 0,1
5 23.7.2018 04:00 0 100 16,4 158,8 0,2
6 23.7.2018 03:30 0 100 16,7 144,1 0,1
7 23.7.2018 03:00 0 100 17 152,6 0,1
8 23.7.2018 02:30 0 100 17,5 147,8 0,1
9 23.7.2018 02:00 0 100 17,8 147,8 0,1
10 23.7.2018 01:30 0 100 18,2 147,8 0,1
11 23.7.2018 01:00 0 100 18,4 147,8 0,1
12 23.7.2018 00:30 0 100 18,6 147,8 0,1
13 23.7.2018 00:00 0 100 18,6 150,2 0,1
14 22.7.2018 23:30 0 100 18,7 150,2 0,1
15 22.7.2018 23:00 0 100 18,9 150,2 0,1
16 22.7.2018 22:30 0 100 18,9 150,2 0,1
17 22.7.2018 22:00 0 100 19,1 150,2 0,1
18 22.7.2018 21:30 0 100 19,1 182,2 0,1
19 22.7.2018 21:00 0 100 19,2 182,7 0,1
20 22.7.2018 20:30 0 100 19,5 287,8 0,1
21 22.7.2018 20:00 0 100 19,9 287,8 0,1
22 22.7.2018 19:30 0 100 20,5 287,9 0,1
23 22.7.2018 19:00 0 100 20,7 296 0,1
24 22.7.2018 18:30 0 98,2 21,2 296 0,1
25 22.7.2018 18:00 0 88,7 22 296 0,1
26 22.7.2018 17:30 0 85,3 22,8 290,7 0,3
27 22.7.2018 17:00 0 78,1 24 266,6 0,3
28 22.7.2018 16:30 0 69,7 25 58,9 0,3
29 22.7.2018 16:00 0 72,7 24,7 45,8 0,9
30 22.7.2018 15:30 0 81,3 22,8 241,1 0,2
31 22.7.2018 15:00 0 80,3 23,5 237,8 0,1
32 22.7.2018 14:30 0 78,2 23,7 103,1 0,1
33 22.7.2018 14:00 0 76 23,4 67 0,3
34 22.7.2018 13:30 0 74 23,5 106,1 1,4
35 22.7.2018 13:00 0 65,7 24,8 80,3 3,9
36 22.7.2018 12:30 0 56,6 27,2 137,4 1,7
37 22.7.2018 12:00 0 48,1 28,5 298,7 0,3
38 22.7.2018 11:30 0 56,5 27,2 338 0,1
39 22.7.2018 11:00 0 58,4 26,1 299,2 0,1
40 22.7.2018 10:30 0 62,2 25,5 316 0,1
41 22.7.2018 10:00 0 75,7 24,9 336,9 0,1
42 22.7.2018 09:30 0 77,9 24 360 0,1
43 22.7.2018 09:00 0 81 22,9 360 0,1
44 22.7.2018 08:30 0 79,5 22,3 360 0,1
45 22.7.2018 08:00 0 82,3 21,5 0,4 0,1
46 22.7.2018 07:30 0 89,6 20,5 109,3 0,1
47 22.7.2018 07:00 0 86 20,9 186,6 0,1
48 22.7.2018 06:30 0 96,1 19,8 186,8 0,1
© 2011 Ministrstvo za kmetijstvo, gozdarstvo in prehrano. Vse pravice pridržane.